Time;durP1;ratioP1;P1;durP2;ratioP2;P2;SDS_P1;SDS_P2;PMS_P1;PMS_P2;Temp;Humidity;BMP_temperature;BMP_pressure;BME280_temperature;BME280_humidity;BME280_pressure;Samples;Min_cycle;Max_cycle;Signal;HPM_P1;HPM_P2
2022/08/03 00:01:19;;;;;;;5.22;1.73;;;;;;;20.15;88.46;101416.28;4997301;28;20033;-69
2022/08/03 00:03:44;;;;;;;7.90;2.00;;;;;;;19.99;89.86;101409.94;4996053;28;20022;-68
2022/08/03 00:06:10;;;;;;;7.35;1.75;;;;;;;20.13;89.34;101409.69;4995984;28;20049;-67
2022/08/03 00:08:35;;;;;;;9.90;1.85;;;;;;;20.04;89.82;101402.19;4995873;28;20026;-69
2022/08/03 00:11:01;;;;;;;7.65;1.95;;;;;;;20.12;89.32;101410.72;4996123;28;20014;-68
2022/08/03 00:13:26;;;;;;;7.95;1.73;;;;;;;20.12;89.61;101408.88;4997129;28;20042;-69
2022/08/03 00:15:52;;;;;;;11.80;1.95;;;;;;;20.05;90.00;101413.47;4997026;28;20109;-69
2022/08/03 00:18:18;;;;;;;8.27;1.80;;;;;;;20.14;90.37;101421.75;4995750;28;20057;-69
2022/08/03 00:20:43;;;;;;;9.00;1.67;;;;;;;20.00;90.96;101405.53;4996748;28;20124;-70
2022/08/03 00:23:09;;;;;;;7.28;1.90;;;;;;;20.04;90.75;101406.63;4996755;28;20029;-69
2022/08/03 00:25:35;;;;;;;10.02;1.90;;;;;;;20.05;90.40;101408.22;4995745;28;20031;-69
2022/08/03 00:28:02;;;;;;;9.77;1.85;;;;;;;20.09;90.61;101414.59;4995559;28;20022;-69
2022/08/03 00:30:28;;;;;;;10.10;1.90;;;;;;;20.13;89.83;101410.47;4996526;28;20034;-69
2022/08/03 00:32:53;;;;;;;7.40;1.83;;;;;;;20.10;90.16;101416.19;4995656;28;20085;-69
2022/08/03 00:35:19;;;;;;;10.15;2.08;;;;;;;20.10;90.25;101408.31;4995347;28;20026;-68
2022/08/03 00:37:44;;;;;;;8.38;1.80;;;;;;;19.99;90.88;101411.78;4996708;28;20081;-68
2022/08/03 00:40:11;;;;;;;7.00;2.15;;;;;;;20.02;91.02;101408.69;4996598;28;20026;-69
2022/08/03 00:42:49;;;;;;;8.45;1.90;;;;;;;19.95;91.83;101413.28;4995249;28;20136;-69
2022/08/03 00:45:16;;;;;;;10.77;2.20;;;;;;;19.99;91.43;101409.94;4995059;28;20026;-69
2022/08/03 00:47:42;;;;;;;8.77;1.77;;;;;;;19.86;92.05;101404.22;4995151;28;20026;-70
2022/08/03 00:50:08;;;;;;;8.20;1.75;;;;;;;19.87;92.21;101405.78;4996350;28;20087;-69
2022/08/03 00:52:33;;;;;;;11.52;1.90;;;;;;;19.90;91.71;101407.94;4996286;28;20023;-69
2022/08/03 00:55:00;;;;;;;11.73;2.00;;;;;;;19.77;92.45;101398.53;4996286;28;20030;-69
2022/08/03 00:57:25;;;;;;;11.90;1.70;;;;;;;19.76;92.90;101394.31;4996384;28;20509;-69
2022/08/03 00:59:51;;;;;;;11.23;2.10;;;;;;;19.69;93.25;101385.78;4996152;28;20026;-69
2022/08/03 01:02:16;;;;;;;8.45;2.00;;;;;;;19.84;92.24;101393.94;4996182;28;20025;-69
2022/08/03 01:04:41;;;;;;;13.60;1.85;;;;;;;19.82;92.34;101395.97;4994927;28;20418;-68
2022/08/03 01:07:27;;;;;;;7.35;1.90;;;;;;;19.79;92.46;101391.22;4994673;28;20026;-68
2022/08/03 01:10:12;;;;;;;8.95;1.73;;;;;;;19.83;92.55;101389.72;4996030;28;20057;-68
2022/08/03 01:12:47;;;;;;;9.00;2.03;;;;;;;19.73;93.15;101392.16;4996148;28;20026;-69
2022/08/03 01:15:21;;;;;;;6.82;1.77;;;;;;;19.73;93.22;101392.94;4996082;28;20034;-69
2022/08/03 01:18:05;;;;;;;10.35;2.13;;;;;;;19.71;93.19;101389.78;4994553;28;20169;-70
2022/08/03 01:20:34;;;;;;;14.00;2.35;;;;;;;19.68;93.66;101384.16;4994460;28;20527;-70
2022/08/03 01:23:26;;;;;;;9.93;2.08;;;;;;;19.77;93.07;101388.84;4995769;28;20018;-70
2022/08/03 01:26:10;;;;;;;7.70;1.88;;;;;;;19.79;93.30;101380.72;4994470;28;20037;-70
2022/08/03 01:29:10;;;;;;;7.88;1.80;;;;;;;19.79;93.32;101384.16;4994414;28;20466;-70
2022/08/03 01:31:40;;;;;;;9.07;1.90;;;;;;;19.73;93.29;101382.44;4994372;28;20084;-70
2022/08/03 01:34:09;;;;;;;13.82;2.30;;;;;;;19.71;93.53;101381.09;4995656;28;20030;-70
2022/08/03 01:36:39;;;;;;;8.45;2.10;;;;;;;19.70;93.81;101382.91;4994300;28;20117;-71
2022/08/03 01:39:08;;;;;;;7.22;1.90;;;;;;;19.65;94.09;101379.38;4994260;28;20057;-67
2022/08/03 01:41:39;;;;;;;11.27;2.13;;;;;;;19.66;94.46;101389.66;4994174;28;20394;-68
2022/08/03 01:44:08;;;;;;;9.95;2.35;;;;;;;19.66;94.40;101381.00;4994123;28;20045;-70
2022/08/03 01:46:35;;;;;;;5.97;2.05;;;;;;;19.77;93.56;101380.97;4995310;28;20033;-68
2022/08/03 01:49:02;;;;;;;7.50;2.03;;;;;;;19.72;94.05;101375.63;4995261;28;20026;-68
2022/08/03 01:51:29;;;;;;;12.68;1.90;;;;;;;19.79;93.66;101385.97;4993760;28;20057;-68
2022/08/03 01:53:57;;;;;;;7.35;1.88;;;;;;;19.63;94.71;101373.59;4993953;28;20048;-69
2022/08/03 01:56:24;;;;;;;8.23;2.40;;;;;;;19.70;94.53;101372.44;4993527;28;20057;-69
2022/08/03 01:58:52;;;;;;;10.40;2.38;;;;;;;19.67;95.18;101380.75;4994974;28;20426;-68
2022/08/03 02:01:20;;;;;;;13.57;2.15;;;;;;;19.65;94.74;101369.72;4993812;28;20026;-68
2022/08/03 02:03:48;;;;;;;9.60;1.92;;;;;;;19.65;95.09;101372.34;4994952;28;20394;-70
2022/08/03 02:06:15;;;;;;;11.35;1.95;;;;;;;19.65;94.59;101377.59;4993660;28;20022;-69
2022/08/03 02:08:43;;;;;;;10.52;2.20;;;;;;;19.50;95.46;101361.50;4994910;28;20091;-69
2022/08/03 02:11:09;;;;;;;12.27;2.35;;;;;;;19.65;94.96;101371.50;4994907;28;20029;-69
2022/08/03 02:13:35;;;;;;;16.10;2.60;;;;;;;19.61;95.06;101369.34;4994751;28;20496;-68
2022/08/03 02:16:03;;;;;;;10.00;2.55;;;;;;;19.68;94.89;101371.88;4994778;28;20026;-69
2022/08/03 02:18:33;;;;;;;10.70;2.28;;;;;;;19.64;95.17;101362.06;4994751;28;20375;-69
2022/08/03 02:21:03;;;;;;;9.80;2.33;;;;;;;19.65;95.23;101361.88;4993267;28;20174;-70
2022/08/03 02:23:29;;;;;;;9.77;2.40;;;;;;;19.66;95.43;101366.06;4993414;28;20080;-70
2022/08/03 02:26:01;;;;;;;11.63;2.33;;;;;;;19.56;95.91;101369.28;4994617;28;20398;-69
2022/08/03 02:28:34;;;;;;;11.40;2.50;;;;;;;19.62;95.72;101362.28;4994551;28;20080;-69
2022/08/03 02:31:03;;;;;;;6.10;2.05;;;;;;;19.64;96.12;101365.47;4994387;28;20034;-68
2022/08/03 02:33:41;;;;;;;16.35;2.53;;;;;;;19.58;96.73;101356.72;4994531;28;20073;-69
2022/08/03 02:36:09;;;;;;;9.98;2.72;;;;;;;19.57;96.95;101359.56;4994589;28;20441;-69
2022/08/03 02:38:38;;;;;;;9.65;2.10;;;;;;;19.45;97.85;101364.03;4994378;28;20085;-70
2022/08/03 02:41:07;;;;;;;16.15;2.30;;;;;;;19.53;97.28;101355.81;4993060;28;20029;-68
2022/08/03 02:43:34;;;;;;;7.07;2.30;;;;;;;19.54;96.95;101354.81;4994414;28;20030;-69
2022/08/03 02:46:00;;;;;;;10.05;2.40;;;;;;;19.41;97.68;101349.81;4994201;28;20032;-69
2022/08/03 02:48:31;;;;;;;11.95;2.42;;;;;;;19.44;97.84;101355.38;4994175;28;20034;-69
2022/08/03 02:50:58;;;;;;;12.90;2.75;;;;;;;19.45;97.42;101356.16;4992769;28;20061;-69
2022/08/03 02:53:25;;;;;;;12.68;2.60;;;;;;;19.33;98.48;101346.53;4994063;28;20026;-69
2022/08/03 02:55:52;;;;;;;11.30;2.53;;;;;;;19.44;97.82;101342.28;4992883;28;20025;-70
2022/08/03 02:58:20;;;;;;;12.55;2.42;;;;;;;19.32;97.72;101339.69;4994014;28;20474;-70
2022/08/03 03:00:46;;;;;;;14.18;2.45;;;;;;;19.31;98.76;101339.94;4992725;28;20018;-68
2022/08/03 03:03:12;;;;;;;11.85;2.70;;;;;;;19.35;98.00;101341.84;4992807;28;20486;-69
2022/08/03 03:05:40;;;;;;;9.27;2.50;;;;;;;19.35;97.71;101344.47;4994026;28;20033;-69
2022/08/03 03:08:05;;;;;;;10.18;2.50;;;;;;;19.36;97.14;101340.84;4993155;28;20114;-68
2022/08/03 03:10:31;;;;;;;12.13;2.90;;;;;;;19.38;96.90;101336.13;4993888;28;20081;-68
2022/08/03 03:12:58;;;;;;;14.43;3.08;;;;;;;19.39;96.54;101335.13;4992847;28;20030;-69
2022/08/03 03:15:26;;;;;;;7.07;2.28;;;;;;;19.40;96.93;101338.53;5009056;28;20068;-69
2022/08/03 03:17:52;;;;;;;13.90;2.85;;;;;;;19.29;97.18;101337.53;4993842;28;20501;-69
2022/08/03 03:20:20;;;;;;;11.70;2.55;;;;;;;19.27;96.91;101339.56;4993660;28;20129;-69
2022/08/03 03:22:47;;;;;;;13.13;2.60;;;;;;;19.35;96.79;101333.19;4992549;28;20025;-69
2022/08/03 03:25:13;;;;;;;16.20;3.10;;;;;;;19.36;96.73;101335.59;4993777;28;20026;-69
2022/08/03 03:27:39;;;;;;;14.82;2.88;;;;;;;19.24;97.32;101334.00;4993752;28;20037;-70
2022/08/03 03:30:05;;;;;;;14.57;2.90;;;;;;;19.22;97.94;101336.88;4993928;28;20118;-70
2022/08/03 03:32:31;;;;;;;16.17;2.90;;;;;;;19.29;97.15;101337.53;4994032;28;20530;-69
2022/08/03 03:34:58;;;;;;;13.68;2.42;;;;;;;19.24;97.06;101341.88;4992501;28;20053;-70
2022/08/03 03:37:23;;;;;;;13.80;2.67;;;;;;;19.17;97.77;101342.00;4993691;28;20030;-69
2022/08/03 03:39:49;;;;;;;15.10;2.67;;;;;;;19.21;97.40;101337.09;4993601;28;20077;-69
2022/08/03 03:42:14;;;;;;;14.48;2.80;;;;;;;19.14;97.77;101345.88;4993700;28;20053;-69
2022/08/03 03:44:39;;;;;;;22.15;3.33;;;;;;;19.17;97.40;101340.16;4993622;28;20050;-70
2022/08/03 03:47:05;;;;;;;13.15;2.70;;;;;;;19.17;97.42;101342.78;4993504;28;20023;-70
2022/08/03 03:49:31;;;;;;;10.65;2.45;;;;;;;19.07;97.88;101350.41;4993574;28;20022;-69
2022/08/03 03:51:56;;;;;;;13.55;2.50;;;;;;;19.13;97.44;101338.22;4993357;28;20033;-71
2022/08/03 03:54:21;;;;;;;13.82;2.95;;;;;;;19.00;98.43;101333.25;4993563;28;20497;-70
2022/08/03 03:56:47;;;;;;;11.32;2.72;;;;;;;19.03;97.91;101341.44;4993501;28;20489;-70
2022/08/03 03:59:12;;;;;;;17.30;2.95;;;;;;;19.05;98.21;101346.47;4993451;28;20065;-70
2022/08/03 04:01:38;;;;;;;11.15;2.75;;;;;;;19.08;97.86;101346.00;4993505;28;20382;-70
2022/08/03 04:10:57;;;;;;;12.57;2.75;;;;;;;19.04;98.08;101344.84;4993432;28;20451;-70
2022/08/03 04:12:24;;;;;;;9.98;2.40;;;;;;;19.01;98.51;101345.31;4993325;28;20085;-70
2022/08/03 04:14:53;;;;;;;18.92;3.88;;;;;;;19.11;97.79;101345.53;4991985;28;20022;-70
2022/08/03 04:17:19;;;;;;;14.75;2.80;;;;;;;19.08;97.18;101349.41;4991948;28;20026;-70
2022/08/03 04:19:48;;;;;;;15.65;3.10;;;;;;;19.03;97.66;101356.38;4994528;28;20033;-70
2022/08/03 04:22:18;;;;;;;14.48;3.20;;;;;;;19.03;97.93;101359.78;4995741;28;20031;-70
2022/08/03 04:24:47;;;;;;;17.75;3.35;;;;;;;19.13;97.38;101353.94;4995573;28;20034;-70
2022/08/03 04:27:15;;;;;;;15.23;2.75;;;;;;;19.11;97.06;101342.91;4997070;28;20137;-70
2022/08/03 04:29:44;;;;;;;13.73;2.70;;;;;;;19.17;97.01;101347.25;4996664;28;20022;-69
2022/08/03 04:32:10;;;;;;;13.82;3.33;;;;;;;19.06;96.94;101342.81;4995351;28;20038;-69
2022/08/03 04:34:35;;;;;;;15.88;2.95;;;;;;;19.10;96.53;101343.94;4995487;28;20032;-70
2022/08/03 04:37:08;;;;;;;16.38;3.05;;;;;;;19.07;96.57;101350.41;4996613;28;20022;-70
2022/08/03 04:39:35;;;;;;;18.98;2.85;;;;;;;19.14;96.80;101350.31;4996634;28;20066;-70
2022/08/03 04:42:05;;;;;;;19.50;3.80;;;;;;;19.19;96.41;101354.84;4996686;28;20050;-70
2022/08/03 04:44:36;;;;;;;10.77;2.90;;;;;;;19.17;95.81;101361.13;4996598;28;20394;-70
2022/08/03 04:47:01;;;;;;;14.23;2.92;;;;;;;19.06;96.52;101364.56;4996420;28;20034;-70
2022/08/03 04:49:28;;;;;;;14.57;2.92;;;;;;;18.99;96.80;101368.31;4996399;28;20034;-69
2022/08/03 04:51:54;;;;;;;22.92;3.20;;;;;;;19.09;96.70;101371.16;4996369;28;20038;-70
2022/08/03 04:54:19;;;;;;;14.32;2.67;;;;;;;19.14;96.89;101372.06;4996287;28;20037;-70
2022/08/03 04:56:44;;;;;;;16.05;3.17;;;;;;;19.13;96.03;101377.53;4996315;28;20462;-69
2022/08/03 04:59:10;;;;;;;13.55;3.13;;;;;;;19.21;96.31;101382.41;4994855;28;20122;-69
2022/08/03 05:01:36;;;;;;;20.58;3.30;;;;;;;19.23;95.51;101380.38;4994866;28;20021;-67
2022/08/03 05:04:02;;;;;;;14.23;2.90;;;;;;;19.31;94.84;101372.16;4996159;28;20023;-69
2022/08/03 05:06:27;;;;;;;14.13;3.05;;;;;;;19.39;94.47;101378.84;4995061;28;20480;-69
2022/08/03 05:08:52;;;;;;;21.60;2.90;;;;;;;19.33;94.44;101387.63;4994831;28;20505;-69
2022/08/03 05:11:18;;;;;;;19.45;3.35;;;;;;;19.23;95.51;101384.81;4994714;28;20065;-69
2022/08/03 05:13:44;;;;;;;9.00;2.80;;;;;;;19.27;95.30;101378.88;4995990;28;20082;-70
2022/08/03 05:16:10;;;;;;;16.73;3.05;;;;;;;19.26;95.75;101372.06;4995982;28;20058;-69
2022/08/03 05:18:35;;;;;;;16.40;3.42;;;;;;;19.24;96.14;101381.97;4995950;28;20486;-69
2022/08/03 05:21:01;;;;;;;13.23;3.00;;;;;;;19.34;95.67;101384.00;4995745;28;20112;-69
2022/08/03 05:23:26;;;;;;;15.35;3.10;;;;;;;19.41;94.59;101389.13;4994662;28;20023;-69
2022/08/03 05:25:52;;;;;;;18.10;2.92;;;;;;;19.47;94.59;101383.75;4995709;28;20386;-70
2022/08/03 05:28:17;;;;;;;11.07;2.83;;;;;;;19.66;94.02;101388.88;4994423;28;20076;-70
2022/08/03 05:30:42;;;;;;;13.50;3.08;;;;;;;19.68;92.74;101395.47;4993595;28;20030;-70
2022/08/03 05:33:08;;;;;;;10.63;2.53;;;;;;;19.62;93.15;101388.50;4995510;28;20026;-71
2022/08/03 05:35:37;;;;;;;16.48;2.97;;;;;;;19.64;93.24;101388.28;4995565;28;20022;-70
2022/08/03 05:38:03;;;;;;;17.85;3.28;;;;;;;19.56;93.32;101390.25;4995476;28;20056;-70
2022/08/03 05:40:29;;;;;;;17.98;3.17;;;;;;;19.58;93.75;101384.75;4995437;28;20527;-70
2022/08/03 05:42:54;;;;;;;23.77;3.30;;;;;;;19.73;92.45;101384.28;4995332;28;20033;-70
2022/08/03 05:45:20;;;;;;;20.48;3.40;;;;;;;19.44;93.98;101401.75;4995358;28;20030;-70
2022/08/03 05:47:45;;;;;;;18.63;3.38;;;;;;;19.76;92.37;101389.84;4994015;28;20018;-71
2022/08/03 05:50:11;;;;;;;16.85;3.00;;;;;;;19.95;91.64;101389.69;4993996;28;20034;-70
2022/08/03 05:52:38;;;;;;;15.05;2.90;;;;;;;20.11;90.58;101394.19;4995156;28;20034;-70
2022/08/03 05:55:07;;;;;;;15.23;3.13;;;;;;;20.41;88.86;101390.47;4995078;28;20031;-69
2022/08/03 05:57:33;;;;;;;15.52;3.00;;;;;;;20.63;87.42;101387.97;4993901;28;20058;-70
2022/08/03 05:59:58;;;;;;;11.30;3.00;;;;;;;20.44;88.14;101382.13;4993767;28;20069;-70
2022/08/03 06:02:24;;;;;;;22.33;3.35;;;;;;;23.89;72.85;101388.56;4993812;28;20026;-70
2022/08/03 06:04:49;;;;;;;21.92;3.22;;;;;;;27.09;60.01;101391.91;4994915;28;20064;-70
2022/08/03 06:07:15;;;;;;;15.35;3.28;;;;;;;28.19;56.22;101373.94;4993808;28;20046;-71
2022/08/03 06:09:40;;;;;;;19.02;2.92;;;;;;;29.34;51.49;101385.66;4994900;28;20026;-68
2022/08/03 06:12:06;;;;;;;16.33;3.72;;;;;;;27.96;55.00;101378.28;4994800;28;20471;-69
2022/08/03 06:14:31;;;;;;;18.52;2.88;;;;;;;26.73;58.24;101390.44;4994723;28;20041;-69
2022/08/03 06:16:56;;;;;;;20.48;4.05;;;;;;;25.93;60.92;101388.16;4993443;28;20091;-69
2022/08/03 06:19:23;;;;;;;13.88;3.30;;;;;;;25.59;64.43;101394.16;4994628;28;20100;-69
2022/08/03 06:21:48;;;;;;;18.92;3.17;;;;;;;26.96;57.74;101391.50;4993119;28;20053;-71
2022/08/03 06:24:13;;;;;;;12.68;2.83;;;;;;;28.22;55.05;101386.63;4994586;28;20030;-71
2022/08/03 06:26:39;;;;;;;20.83;3.30;;;;;;;28.96;50.75;101388.53;4994606;28;20105;-71
2022/08/03 06:29:04;;;;;;;15.97;3.33;;;;;;;27.15;55.56;101385.44;4994563;28;20584;-72
2022/08/03 06:31:29;;;;;;;13.25;3.22;;;;;;;28.97;53.44;101382.13;4994355;28;20293;-71
2022/08/03 06:33:54;;;;;;;15.45;2.78;;;;;;;30.41;48.58;101377.84;4993262;28;20027;-71
2022/08/03 06:36:20;;;;;;;15.23;2.70;;;;;;;29.72;49.16;101380.84;4993176;28;20022;-70
2022/08/03 06:38:45;;;;;;;19.10;3.63;;;;;;;26.26;58.94;101380.47;4994306;28;20277;-70
2022/08/03 06:41:10;;;;;;;15.88;3.10;;;;;;;30.34;48.88;101388.19;4994325;28;20048;-70
2022/08/03 06:43:36;;;;;;;19.13;3.55;;;;;;;28.70;52.38;101381.03;4994203;28;20434;-69
2022/08/03 06:46:02;;;;;;;17.48;3.33;;;;;;;30.34;47.20;101391.63;4994272;28;20101;-68
2022/08/03 06:48:27;;;;;;;15.65;3.45;;;;;;;29.52;48.12;101403.38;4994066;28;20109;-69
2022/08/03 06:50:53;;;;;;;14.40;3.67;;;;;;;30.37;46.95;101403.56;4994127;28;20057;-69
2022/08/03 06:53:18;;;;;;;16.90;3.72;;;;;;;30.58;46.44;101398.47;4993967;28;20034;-69
2022/08/03 06:55:43;;;;;;;16.63;2.97;;;;;;;28.58;51.18;101404.66;4992519;28;20079;-69
2022/08/03 06:58:09;;;;;;;21.60;3.97;;;;;;;27.55;54.86;101404.63;4993993;28;20022;-69
2022/08/03 07:00:34;;;;;;;21.08;3.50;;;;;;;31.09;46.88;101393.66;4994014;28;20054;-69
2022/08/03 07:02:59;;;;;;;20.63;3.28;;;;;;;29.82;48.94;101395.81;4994022;28;20116;-70
2022/08/03 07:05:25;;;;;;;15.68;3.50;;;;;;;31.06;45.88;101399.63;4994032;28;20022;-69
2022/08/03 07:07:54;;;;;;;17.05;3.35;;;;;;;30.33;47.71;101399.94;4994053;28;20026;-70
2022/08/03 07:10:19;;;;;;;16.45;3.03;;;;;;;31.08;44.65;101402.78;4992616;28;20029;-69
2022/08/03 07:12:46;;;;;;;21.52;3.88;;;;;;;30.63;46.06;101389.56;4993804;28;20426;-70
2022/08/03 07:15:11;;;;;;;15.50;3.20;;;;;;;32.17;42.71;101402.66;4993978;28;20437;-70
2022/08/03 07:17:37;;;;;;;12.68;3.30;;;;;;;31.43;44.83;101411.66;4993790;28;20029;-70
2022/08/03 07:20:05;;;;;;;17.45;3.70;;;;;;;31.15;44.60;101403.88;4993713;28;20078;-69
2022/08/03 07:22:30;;;;;;;17.42;3.72;;;;;;;31.95;42.53;101405.53;4993689;28;20038;-69
2022/08/03 07:24:56;;;;;;;25.45;3.78;;;;;;;32.69;42.04;101407.88;4993815;28;20080;-70
2022/08/03 07:27:22;;;;;;;8.65;3.10;;;;;;;32.38;42.62;101413.47;4992688;28;20033;-71
2022/08/03 07:29:47;;;;;;;20.00;4.10;;;;;;;31.29;44.52;101410.97;4993834;28;20030;-69
2022/08/03 07:32:12;;;;;;;16.90;4.03;;;;;;;31.67;43.65;101419.19;4993651;28;20037;-69
2022/08/03 07:34:38;;;;;;;20.15;3.75;;;;;;;31.08;45.02;101413.44;4992479;28;20518;-69
2022/08/03 07:37:03;;;;;;;20.63;4.25;;;;;;;29.89;48.01;101412.97;4993727;28;20085;-69
2022/08/03 07:39:28;;;;;;;24.17;4.28;;;;;;;27.82;52.96;101426.06;4993704;28;20068;-69
2022/08/03 07:41:54;;;;;;;15.65;3.70;;;;;;;26.60;57.30;101414.16;4993622;28;20023;-69
2022/08/03 07:44:19;;;;;;;17.57;3.70;;;;;;;26.90;57.61;101413.84;4993557;28;20018;-69
2022/08/03 07:46:45;;;;;;;20.70;3.65;;;;;;;26.87;57.27;101416.25;4993640;28;20273;-70
2022/08/03 07:49:11;;;;;;;13.88;3.55;;;;;;;26.33;58.71;101420.72;4992326;28;20478;-69
2022/08/03 07:51:37;;;;;;;19.77;3.75;;;;;;;27.04;57.04;101410.50;4993439;28;20030;-69
2022/08/03 07:54:03;;;;;;;20.08;3.17;;;;;;;27.46;56.29;101417.75;4992441;28;20022;-69
2022/08/03 07:56:28;;;;;;;17.73;3.97;;;;;;;26.98;56.18;101418.53;4996165;28;20029;-70
2022/08/03 07:58:54;;;;;;;15.30;3.05;;;;;;;26.85;57.23;101418.41;4997369;28;20034;-70
2022/08/03 08:01:19;;;;;;;20.15;3.90;;;;;;;27.43;56.55;101431.56;4997760;28;20034;-70
2022/08/03 08:03:46;;;;;;;21.02;3.65;;;;;;;27.31;56.36;101423.25;5012419;28;20018;-70
2022/08/03 08:06:11;;;;;;;18.35;3.50;;;;;;;27.00;58.25;101427.00;4996034;28;20532;-70
2022/08/03 08:08:38;;;;;;;17.85;3.50;;;;;;;27.27;57.56;101435.47;4997311;28;20026;-70
2022/08/03 08:11:03;;;;;;;21.33;3.20;;;;;;;27.46;56.80;101431.00;4995863;28;20030;-70
2022/08/03 08:13:29;;;;;;;21.42;3.47;;;;;;;27.81;54.31;101435.06;4997360;28;20026;-69
2022/08/03 08:15:54;;;;;;;17.35;3.97;;;;;;;26.83;57.26;101425.84;4996097;28;20018;-69
2022/08/03 08:18:19;;;;;;;19.45;3.60;;;;;;;27.01;57.03;101433.88;4997205;28;20027;-69
2022/08/03 08:20:45;;;;;;;15.38;3.83;;;;;;;26.42;58.48;101432.28;4995770;28;20054;-70
2022/08/03 08:23:10;;;;;;;17.03;3.37;;;;;;;26.29;59.27;101432.91;4998062;28;20073;-69
2022/08/03 08:25:35;;;;;;;17.25;3.90;;;;;;;27.05;56.85;101428.03;4999864;28;20304;-72
2022/08/03 08:28:04;;;;;;;16.65;3.92;;;;;;;26.69;57.91;101433.66;5001831;28;20123;-71
2022/08/03 08:30:31;;;;;;;18.15;3.70;;;;;;;26.77;58.51;101438.38;5001116;28;20022;-71
2022/08/03 08:32:56;;;;;;;22.70;4.60;;;;;;;27.09;56.88;101439.63;5001148;28;20120;-71
2022/08/03 08:35:23;;;;;;;21.33;3.83;;;;;;;27.20;57.43;101431.31;5000787;28;20029;-72
2022/08/03 08:37:48;;;;;;;19.88;3.97;;;;;;;27.14;56.82;101432.41;5000417;28;20113;-70
2022/08/03 08:40:14;;;;;;;18.73;3.83;;;;;;;27.41;55.84;101445.13;5001369;28;20090;-72
2022/08/03 08:42:40;;;;;;;21.17;3.95;;;;;;;27.17;56.47;101436.41;4999338;28;20022;-70
2022/08/03 08:45:08;;;;;;;15.65;3.78;;;;;;;26.71;58.15;101440.28;4996766;28;20023;-69
2022/08/03 08:47:36;;;;;;;17.60;3.60;;;;;;;26.74;59.11;101436.28;4995833;28;20030;-69
2022/08/03 08:50:03;;;;;;;18.10;4.10;;;;;;;27.15;58.00;101435.84;4996886;28;20165;-68
2022/08/03 08:52:29;;;;;;;18.50;4.07;;;;;;;28.25;54.71;101427.78;4995508;28;20026;-69
2022/08/03 08:55:00;;;;;;;17.77;3.65;;;;;;;28.41;54.22;101437.09;4996776;28;20030;-71
2022/08/03 08:57:28;;;;;;;18.83;4.32;;;;;;;27.94;54.55;101444.22;4996903;28;20031;-69
2022/08/03 08:59:55;;;;;;;14.13;3.78;;;;;;;28.41;52.91;101426.47;4996626;28;20027;-69
2022/08/03 09:02:22;;;;;;;21.42;3.70;;;;;;;28.68;53.18;101427.63;4995326;28;20440;-69
2022/08/03 09:04:48;;;;;;;20.98;4.07;;;;;;;28.84;52.34;101428.16;4996347;28;20022;-69
2022/08/03 09:07:13;;;;;;;26.48;4.30;;;;;;;29.34;51.49;101434.34;4995145;28;20033;-69
2022/08/03 09:09:38;;;;;;;18.42;4.15;;;;;;;28.73;52.98;101432.84;4996607;28;20033;-69
2022/08/03 09:12:04;;;;;;;19.70;4.28;;;;;;;28.98;52.10;101439.59;4996186;28;20035;-70
2022/08/03 09:14:29;;;;;;;19.98;3.70;;;;;;;28.75;51.98;101436.81;4996348;28;20030;-70
2022/08/03 09:17:01;;;;;;;19.23;4.40;;;;;;;29.02;51.01;101430.72;4996089;28;20018;-69
2022/08/03 09:19:28;;;;;;;18.45;3.80;;;;;;;28.53;52.77;101437.44;4996092;28;20049;-71
2022/08/03 09:22:17;;;;;;;19.15;4.22;;;;;;;29.16;52.33;101435.28;4995761;28;20042;-70
2022/08/03 09:25:04;;;;;;;21.77;3.90;;;;;;;29.45;51.32;101426.97;4995876;28;20358;-69
2022/08/03 09:27:44;;;;;;;20.83;4.25;;;;;;;29.24;51.10;101437.25;4995768;28;20023;-69
2022/08/03 09:30:17;;;;;;;18.10;4.63;;;;;;;29.56;50.84;101430.97;4995769;28;20041;-70
2022/08/03 09:32:44;;;;;;;12.93;4.15;;;;;;;29.58;49.39;101438.69;4995592;28;20104;-70
2022/08/03 09:35:13;;;;;;;22.45;4.70;;;;;;;29.33;50.30;101434.66;4994364;28;20033;-70
2022/08/03 09:37:39;;;;;;;24.27;4.93;;;;;;;29.16;49.85;101433.41;4994275;28;20026;-70
2022/08/03 09:40:05;;;;;;;20.42;4.40;;;;;;;29.95;49.14;101442.91;4994514;28;20069;-70
2022/08/03 09:42:33;;;;;;;18.88;4.50;;;;;;;29.45;50.12;101440.25;4995373;28;20387;-69
2022/08/03 09:44:59;;;;;;;20.60;4.97;;;;;;;28.76;51.24;101445.56;4995298;28;20097;-70
2022/08/03 09:47:29;;;;;;;21.15;4.88;;;;;;;30.03;48.13;101436.09;4995499;28;20102;-70
2022/08/03 09:50:00;;;;;;;20.95;5.13;;;;;;;29.05;51.01;101436.56;4993960;28;20026;-69
2022/08/03 09:52:33;;;;;;;20.88;5.00;;;;;;;29.52;50.44;101435.34;4995078;28;20068;-70
2022/08/03 09:55:01;;;;;;;19.70;4.97;;;;;;;29.67;49.33;101432.38;4995247;28;20030;-70
2022/08/03 09:57:27;;;;;;;24.35;5.13;;;;;;;29.65;48.73;101439.06;4995121;28;20053;-69
2022/08/03 09:59:57;;;;;;;18.98;5.30;;;;;;;29.77;48.75;101442.00;4993753;28;20558;-70
2022/08/03 10:02:25;;;;;;;17.50;5.15;;;;;;;29.95;48.23;101444.78;4995084;28;20018;-69
2022/08/03 10:04:51;;;;;;;20.55;5.30;;;;;;;28.47;50.89;101437.81;4993862;28;20026;-70
2022/08/03 10:07:22;;;;;;;18.05;5.03;;;;;;;29.43;49.92;101435.25;4994883;28;20038;-70
2022/08/03 10:09:59;;;;;;;16.60;5.15;;;;;;;30.06;47.58;101438.94;4994864;28;20072;-70
2022/08/03 10:12:25;;;;;;;23.40;5.63;;;;;;;29.75;48.45;101435.38;4994757;28;20030;-70
2022/08/03 10:14:51;;;;;;;25.25;5.35;;;;;;;28.83;50.28;101437.19;4994870;28;20452;-70
2022/08/03 10:17:18;;;;;;;19.17;5.00;;;;;;;28.89;49.22;101441.34;4993161;28;20125;-70
2022/08/03 10:19:43;;;;;;;20.35;5.10;;;;;;;29.31;47.54;101437.63;4994702;28;20426;-69
2022/08/03 10:22:13;;;;;;;21.13;5.47;;;;;;;29.28;47.94;101430.22;4994430;28;20043;-69
2022/08/03 10:24:48;;;;;;;20.08;5.35;;;;;;;29.34;48.83;101430.91;4994634;28;20034;-69
2022/08/03 10:27:15;;;;;;;28.10;5.43;;;;;;;29.86;47.79;101436.72;4994526;28;20367;-69
2022/08/03 10:29:46;;;;;;;31.13;5.47;;;;;;;29.94;46.82;101428.03;4994555;28;20033;-69
2022/08/03 10:32:27;;;;;;;19.27;4.57;;;;;;;30.04;45.67;101433.13;4993179;28;20034;-68
2022/08/03 10:35:01;;;;;;;19.35;4.90;;;;;;;30.24;45.10;101431.88;4994608;28;20165;-69
2022/08/03 10:37:30;;;;;;;16.42;4.53;;;;;;;29.70;45.74;101425.66;4994356;28;20084;-68
2022/08/03 10:39:58;;;;;;;21.05;4.78;;;;;;;30.21;46.15;101423.66;4993161;28;20141;-68
2022/08/03 10:42:26;;;;;;;16.88;4.57;;;;;;;31.08;45.03;101429.47;4994559;28;20022;-69
2022/08/03 10:45:19;;;;;;;15.68;4.30;;;;;;;30.69;43.63;101431.78;4994296;28;20030;-69
2022/08/03 10:47:47;;;;;;;22.42;4.00;;;;;;;31.19;43.32;101420.06;4994422;28;20500;-69
2022/08/03 10:50:12;;;;;;;20.73;3.90;;;;;;;30.82;42.88;101422.16;4994213;28;20101;-69
2022/08/03 10:53:01;;;;;;;15.90;4.13;;;;;;;31.10;42.44;101420.03;4992566;28;20177;-71
2022/08/03 10:58:14;;;;;;;16.92;3.90;;;;;;;31.32;42.16;101421.81;4994334;28;20108;-70
2022/08/03 11:00:52;;;;;;;20.92;3.72;;;;;;;31.42;42.00;101415.44;4994056;28;20023;-70
2022/08/03 11:03:17;;;;;;;17.48;3.92;;;;;;;31.39;42.51;101416.03;4994009;28;20030;-69
2022/08/03 11:05:45;;;;;;;14.23;3.35;;;;;;;31.66;41.58;101414.97;4992702;28;20088;-70
2022/08/03 11:08:25;;;;;;;14.75;3.92;;;;;;;31.51;41.25;101413.53;4992787;28;20026;-69
2022/08/03 11:11:17;;;;;;;16.85;3.42;;;;;;;30.96;41.78;101414.84;4993722;28;20030;-69
2022/08/03 11:14:02;;;;;;;17.33;3.55;;;;;;;31.79;40.40;101416.66;4993747;28;20398;-70
2022/08/03 11:16:29;;;;;;;12.48;3.38;;;;;;;31.20;41.42;101410.97;4992598;28;20034;-70
2022/08/03 11:18:59;;;;;;;15.60;3.80;;;;;;;31.19;42.01;101409.41;4993902;28;20022;-68
2022/08/03 11:24:35;;;;;;;13.77;4.22;;;;;;;31.86;42.37;101414.31;4994028;28;20039;-68
2022/08/03 11:27:13;;;;;;;20.10;3.83;;;;;;;31.76;40.53;101413.84;4993776;28;20034;-68
2022/08/03 11:29:54;;;;;;;11.48;3.35;;;;;;;31.58;41.77;101415.75;4990695;28;20034;-68
2022/08/03 11:32:38;;;;;;;16.83;3.50;;;;;;;32.10;40.24;101416.50;4993613;28;20105;-68
2022/08/03 11:35:10;;;;;;;12.98;3.70;;;;;;;30.98;42.12;101411.84;4992377;28;20050;-68